Flight Track Log - Related Links

Times and Time Zones

All times are in EDT time to prevent confusion due to time zone crossing. See the JZA7927 flight status page for this flight to view local times or setup timezone preferences in your user account.

Time Position Orientation Groundspeed Altitude Reporting Facility
EDT Latitude Longitude Course Direction KTS MPH feet Rate Location/Type
Thu 06:13:01 AM 39.2000 -76.6833 339° North 112 129 1,800  Level Potomac TRACON
Thu 06:14:02 AM 39.2333 -76.6833 360° North 116 133 3,000 1,289 Climbing Potomac TRACON
Thu 06:15:02 AM 39.2667 -76.7000 339° North 116 133 4,400 1,105 Climbing Potomac TRACON
Thu 06:15:56 AM 39.3000 -76.7333 322° Northwest 132 152 5,100 793 Climbing Potomac TRACON
Thu 06:16:00 AM 39.2000 -76.9903 270° West  Level FlightAware Approximate
Thu 06:17:00 AM 39.2000 -77.0732 270° West  Level FlightAware Approximate
Thu 06:17:03 AM 39.3167 -76.7667 303° West 157 181 6,000  Level Potomac TRACON
Thu 06:18:00 AM 39.2044 -77.1522 339° North  Level FlightAware Approximate
Thu 06:18:03 AM 39.3333 -76.8333 288° West 154 177 7,200  Level Potomac TRACON
Thu 06:18:57 AM 39.3333 -76.8833 270° West 158 182 8,000 895 Climbing Potomac TRACON
Thu 06:19:57 AM 39.3333 -76.9333 270° West 159 183 8,900 947 Climbing Potomac TRACON
Thu 06:22:07 AM 39.3442 -77.0622 276° West 164 189 11,000 974 Climbing Washington Center
Thu 06:23:08 AM 39.3497 -77.1214 277° West 164 189 12,000 934 Climbing Washington Center
Thu 06:24:09 AM 39.3761 -77.1703 305° West 159 183 12,900 850 Climbing Washington Center
Thu 06:25:08 AM 39.4194 -77.2114 324° Northwest 166 191 13,700 908 Climbing Washington Center
Thu 06:26:08 AM 39.4625 -77.2556 322° Northwest 185 213 14,700 984 Climbing Washington Center
Thu 06:27:10 AM 39.5017 -77.2994 319° Northwest 191 220 15,700 909 Climbing Washington Center
Thu 06:28:53 AM 39.5739 -77.3783 320° Northwest 196 226 17,200 963 Climbing New York Center
Thu 06:29:52 AM 39.6133 -77.4197 321° Northwest 196 226 18,300 1,050 Climbing New York Center
Thu 06:30:53 AM 39.6592 -77.4592 326° Northwest 191 220 19,300 942 Climbing New York Center
Thu 06:31:53 AM 39.7197 -77.4539 North 191 220 20,200 694 Climbing New York Center
Thu 06:32:54 AM 39.7781 -77.4542 360° North 197 227 20,700 397 Climbing New York Center
Thu 06:33:54 AM 39.8408 -77.4519 North 216 249 21,000 153 Climbing New York Center
Thu 06:34:52 AM 39.9097 -77.4506 North 229 264 21,000  Level New York Center
Thu 06:35:53 AM 39.9808 -77.4492 North 235 270 21,000  Level New York Center
Thu 06:36:55 AM 40.0475 -77.4475 North 240 276 21,000  Level New York Center
Thu 06:37:53 AM 40.1164 -77.4486 359° North 240 276 21,000  Level New York Center
Thu 06:38:53 AM 40.1875 -77.4444 North 240 276 21,000  Level New York Center
Thu 06:39:54 AM 40.2561 -77.4458 359° North 240 276 21,000  Level New York Center
Thu 06:40:55 AM 40.3272 -77.4417 North 240 276 21,000 400 Level New York Center
Thu 06:41:54 AM 40.3919 -77.4425 359° North 245 282 21,800 508 Climbing New York Center
Thu 06:42:53 AM 40.4544 -77.4431 360° North 234 269 22,000 100 Climbing New York Center
Thu 06:43:54 AM 40.5211 -77.4414 North 234 269 22,000  Level New York Center
Thu 06:44:54 AM 40.5881 -77.4394 North 234 269 22,000  Level New York Center
Thu 06:45:52 AM 40.6567 -77.4408 359° North 234 269 22,000  Level New York Center
Thu 06:46:53 AM 40.7233 -77.4444 358° North 239 275 22,000  Level New York Center
Thu 06:47:53 AM 40.7800 -77.4747 338° Northwest 221 254 22,000  Level New York Center
Thu 06:48:55 AM 40.8364 -77.5078 336° Northwest 216 249 22,000  Level New York Center
Thu 06:49:54 AM 40.8950 -77.5381 339° North 221 254 22,000  Level New York Center
Thu 06:50:53 AM 40.9478 -77.5653 339° North 227 261 22,000  Level New York Center
Thu 06:51:54 AM 41.0022 -77.5956 337° Northwest 227 261 22,000  Level New York Center
Thu 06:52:54 AM 41.0608 -77.6261 339° North 227 261 22,000  Level New York Center
Thu 06:54:32 AM 41.1561 -77.6792 337° Northwest 227 261 22,000  Level Cleveland Center
Thu 06:55:32 AM 41.2108 -77.7069 339° North 221 254 22,000  Level Cleveland Center
Thu 06:56:32 AM 41.2658 -77.7378 337° Northwest 211 243 22,000  Level Cleveland Center
Thu 06:57:33 AM 41.3186 -77.7658 338° Northwest 211 243 22,000  Level Cleveland Center
Thu 06:58:32 AM 41.3736 -77.7939 339° North 211 243 22,000  Level Cleveland Center
Thu 06:59:33 AM 41.4264 -77.8219 338° Northwest 211 243 22,000  Level Cleveland Center
Thu 07:00:32 AM 41.4814 -77.8531 337° Northwest 211 243 22,000  Level Cleveland Center
Thu 07:01:32 AM 41.5322 -77.8814 337° Northwest 206 237 22,000  Level Cleveland Center
Thu 07:02:33 AM 41.5869 -77.9069 341° North 206 237 22,000  Level Cleveland Center
Thu 07:03:32 AM 41.6397 -77.9381 336° Northwest 206 237 22,000  Level Cleveland Center
Thu 07:04:32 AM 41.6947 -77.9664 339° North 206 237 22,000  Level Cleveland Center
Thu 07:05:32 AM 41.7475 -77.9947 338° Northwest 206 237 22,000  Level Cleveland Center
Thu 07:06:32 AM 41.7981 -78.0233 337° Northwest 206 237 22,000  Level Cleveland Center
Thu 07:07:32 AM 41.8467 -78.0494 338° Northwest 201 231 22,000  Level Cleveland Center
Thu 07:08:33 AM 41.9078 -78.0833 338° Northwest 206 237 22,000  Level Cleveland Center
Thu 07:09:33 AM 41.9625 -78.1117 339° North 206 237 22,000  Level Cleveland Center
Thu 07:10:32 AM 42.0133 -78.1406 337° Northwest 206 237 22,000  Level Cleveland Center
Thu 07:11:33 AM 42.0681 -78.1692 339° North 206 237 22,000  Level Cleveland Center
Thu 07:12:32 AM 42.1144 -78.1956 337° Northwest 206 237 22,000  Level Cleveland Center
Thu 07:13:33 AM 42.1756 -78.2297 337° Northwest 201 231 22,000  Level Cleveland Center
Thu 07:14:33 AM 42.2283 -78.2586 338° Northwest 201 231 22,000  Level Cleveland Center
Thu 07:15:33 AM 42.2831 -78.2875 339° North 201 231 22,000  Level Cleveland Center
Thu 07:16:32 AM 42.3378 -78.3164 339° North 201 231 22,000  Level Cleveland Center
Thu 07:17:32 AM 42.3864 -78.3428 338° Northwest 206 237 22,000  Level Cleveland Center
Thu 07:18:32 AM 42.4411 -78.3717 339° North 206 237 22,000  Level Cleveland Center
Thu 07:19:32 AM 42.4939 -78.4064 334° Northwest 206 237 22,000  Level Cleveland Center
Thu 07:20:33 AM 42.5486 -78.4328 340° North 211 243 22,000 -150 Level Cleveland Center
Thu 07:21:32 AM 42.6056 -78.4647 338° Northwest 211 243 21,700 -550 Descending Cleveland Center
Thu 07:22:33 AM 42.6667 -78.5022 336° Northwest 222 255 20,900 -793 Descending Cleveland Center
Thu 07:23:33 AM 42.7275 -78.5342 339° North 227 261 20,100 -807 Descending Cleveland Center
Thu 07:24:32 AM 42.7908 -78.5717 337° Northwest 238 274 19,300 -807 Descending Cleveland Center
Thu 07:25:32 AM 42.8539 -78.6036 340° North 238 274 18,500 -843 Descending Cleveland Center
Thu 07:26:33 AM 42.9150 -78.6414 336° Northwest 238 274 17,600 -850 Descending Cleveland Center
Thu 07:27:32 AM 42.9617 -78.7022 316° Northwest 233 268 16,800 -837 Descending Cleveland Center
Thu 07:30:01 AM 43.0500 -78.8500 309° West 220 253 14,700 -846 Descending Toronto Center

Login

Don't have an account? Register now (free) for customized features, flight alerts, and more!